METAR Data
IDs: Format: Raw Decoded Include TAF

Data at: 1935 UTC 26 Sep 2021

RJGG 261900Z 04005KT 9999 FEW015 18/17 Q1017 NOSIG